Time;durP1;ratioP1;P1;durP2;ratioP2;P2;SDS_P1;SDS_P2;PMS_P1;PMS_P2;Temp;Humidity;BMP_temperature;BMP_pressure;BME280_temperature;BME280_humidity;BME280_pressure;Samples;Min_cycle;Max_cycle;Signal;HPM_P1;HPM_P2
2023/05/08 00:05:21;;;;;;;5.00;4.60;;;;;;;6.38;100.00;99018.22;15289044;19;20015;-44
2023/05/08 00:10:45;;;;;;;6.57;4.63;;;;;;;6.31;100.00;99017.84;15290833;19;20323;-44
2023/05/08 00:16:11;;;;;;;5.30;4.80;;;;;;;6.29;100.00;99025.13;15293206;19;20018;-46
2023/05/08 00:21:42;;;;;;;4.93;4.50;;;;;;;6.27;100.00;99020.88;15291910;19;20028;-45
2023/05/08 00:27:07;;;;;;;5.20;4.70;;;;;;;6.25;100.00;99033.53;15292178;19;20499;-50
2023/05/08 00:32:31;;;;;;;5.10;4.70;;;;;;;6.27;100.00;99031.59;15287908;19;20446;-45
2023/05/08 00:37:59;;;;;;;4.97;4.57;;;;;;;6.26;100.00;99029.88;15289838;19;20456;-51
2023/05/08 00:43:26;;;;;;;5.32;4.82;;;;;;;6.28;100.00;99034.13;15292671;19;20056;-45
2023/05/08 00:48:53;;;;;;;5.20;4.70;;;;;;;6.30;100.00;99047.38;15293869;19;20014;-51
2023/05/08 00:54:22;;;;;;;5.03;4.63;;;;;;;6.32;100.00;99040.09;15289775;19;20022;-45
2023/05/08 00:59:49;;;;;;;5.10;4.60;;;;;;;6.30;100.00;99045.56;15292613;19;20086;-45
2023/05/08 01:05:20;;;;;;;4.60;4.20;;;;;;;6.29;100.00;99035.00;15287401;19;20025;-46
2023/05/08 01:10:56;;;;;;;4.43;4.10;;;;;;;6.26;100.00;99041.41;15285272;19;20017;-45
2023/05/08 01:16:25;;;;;;;4.50;4.10;;;;;;;6.17;100.00;99024.25;15290606;19;20011;-44
2023/05/08 01:21:55;;;;;;;4.65;4.25;;;;;;;6.12;100.00;99038.94;15289071;19;20082;-45
2023/05/08 01:27:58;;;;;;;5.50;4.68;;;;;;;6.07;100.00;99036.63;15291708;19;20475;-46
2023/05/08 01:33:28;;;;;;;;;;;;;;;6.01;100.00;99034.44;15282342;19;20029;-48
2023/05/08 01:39:02;;;;;;;5.03;4.63;;;;;;;5.94;100.00;99042.03;15287174;19;20288;-49
2023/05/08 01:44:33;;;;;;;5.13;4.68;;;;;;;5.90;100.00;99045.06;15283284;19;20014;-46
2023/05/08 01:50:12;;;;;;;5.60;5.10;;;;;;;5.81;100.00;99031.44;15287580;19;20026;-46
2023/05/08 01:55:39;;;;;;;5.28;4.88;;;;;;;5.78;100.00;99047.69;15284790;19;20014;-51
2023/05/08 02:01:06;;;;;;;5.30;4.80;;;;;;;5.70;100.00;99040.25;15287760;19;20014;-47
2023/05/08 02:06:40;;;;;;;5.47;4.90;;;;;;;5.59;100.00;99048.22;15280345;19;20018;-46
2023/05/08 02:12:09;;;;;;;5.60;5.05;;;;;;;5.57;100.00;99043.97;15282946;19;20768;-46
2023/05/08 02:17:36;;;;;;;5.30;4.80;;;;;;;5.50;100.00;99046.22;15283958;19;20014;-46
2023/05/08 02:23:04;;;;;;;5.57;5.18;;;;;;;5.42;100.00;99049.47;15285100;19;20018;-47
2023/05/08 02:28:32;;;;;;;5.00;4.60;;;;;;;5.36;100.00;99044.56;15287205;19;20048;-51
2023/05/08 02:33:59;;;;;;;5.30;4.80;;;;;;;5.29;100.00;99054.88;15283532;19;20378;-46
2023/05/08 02:39:27;;;;;;;6.28;5.30;;;;;;;5.24;100.00;99051.66;15284894;19;20046;-49
2023/05/08 02:44:51;;;;;;;5.47;5.00;;;;;;;5.17;100.00;99048.59;15281347;19;20035;-46
2023/05/08 02:50:25;;;;;;;5.93;5.40;;;;;;;5.10;100.00;99047.34;15280379;19;20081;-47
2023/05/08 02:55:59;;;;;;;6.22;5.72;;;;;;;5.07;100.00;99063.56;15284078;19;20033;-47
2023/05/08 03:01:32;;;;;;;6.40;5.82;;;;;;;5.00;100.00;99063.16;15285016;19;20086;-47
2023/05/08 03:07:06;;;;;;;7.00;5.68;;;;;;;4.90;100.00;99065.63;15279847;19;20014;-50
2023/05/08 03:12:37;;;;;;;6.78;6.18;;;;;;;4.81;100.00;99058.28;15274818;19;20028;-48
2023/05/08 03:18:10;;;;;;;7.10;5.95;;;;;;;4.73;100.00;99060.63;15279858;19;20086;-49
2023/05/08 03:23:37;;;;;;;6.25;5.60;;;;;;;4.70;100.00;99066.19;15279531;19;20026;-48
2023/05/08 03:29:07;;;;;;;6.40;5.80;;;;;;;4.65;100.00;99060.31;15282640;19;20559;-47
2023/05/08 03:34:32;;;;;;;6.82;6.28;;;;;;;4.60;100.00;99066.84;15280851;19;20022;-48
2023/05/08 03:39:59;;;;;;;6.82;6.22;;;;;;;4.54;100.00;99067.25;15284998;19;20029;-50
2023/05/08 03:45:28;;;;;;;7.30;6.60;;;;;;;4.54;100.00;99061.91;15279509;19;20515;-46
2023/05/08 03:50:54;;;;;;;7.15;6.55;;;;;;;4.50;100.00;99057.78;15285422;19;20015;-47
2023/05/08 03:56:20;;;;;;;8.10;6.72;;;;;;;4.45;100.00;99073.22;15284330;19;20018;-52
2023/05/08 04:01:57;;;;;;;6.70;6.20;;;;;;;4.42;100.00;99073.44;15287017;19;20017;-54
2023/05/08 04:07:36;;;;;;;7.05;6.45;;;;;;;4.35;100.00;99069.50;15290884;19;20007;-49
2023/05/08 04:13:07;;;;;;;7.60;7.00;;;;;;;4.40;100.00;99067.38;15291175;19;20022;-47
2023/05/08 04:18:38;;;;;;;7.47;6.77;;;;;;;4.45;100.00;99086.56;15290975;19;20078;-48
2023/05/08 04:24:04;;;;;;;8.13;7.37;;;;;;;4.51;100.00;99096.84;15295465;19;21363;-47
2023/05/08 04:29:31;;;;;;;6.70;6.10;;;;;;;4.56;100.00;99108.03;15296704;19;20067;-47
2023/05/08 04:34:58;;;;;;;7.22;6.63;;;;;;;4.68;100.00;99116.16;15287703;19;20023;-49
2023/05/08 04:40:23;;;;;;;7.55;6.38;;;;;;;4.77;100.00;99123.50;15286697;19;20014;-47
2023/05/08 04:45:47;;;;;;;7.50;6.90;;;;;;;4.91;100.00;99126.06;15284220;19;20023;-47
2023/05/08 04:51:18;;;;;;;7.47;6.78;;;;;;;5.04;100.00;99150.13;15292954;19;20029;-49
2023/05/08 04:56:43;;;;;;;7.60;6.97;;;;;;;5.19;100.00;99157.97;15292956;19;20036;-47
2023/05/08 05:02:09;;;;;;;7.80;7.13;;;;;;;5.34;100.00;99166.75;15293974;19;20031;-48
2023/05/08 05:07:37;;;;;;;7.68;6.97;;;;;;;5.49;100.00;99162.97;15288268;19;20022;-50
2023/05/08 05:13:04;;;;;;;8.80;8.00;;;;;;;5.66;100.00;99180.44;15278517;19;20010;-45
2023/05/08 05:18:28;;;;;;;8.98;8.15;;;;;;;5.84;100.00;99196.97;15291308;19;20413;-49
2023/05/08 05:23:56;;;;;;;8.77;8.07;;;;;;;6.04;100.00;99192.03;14775592;19;10001247;-48
2023/05/08 05:29:20;;;;;;;7.72;7.03;;;;;;;6.22;100.00;99196.97;15288316;19;20046;-48
2023/05/08 05:34:45;;;;;;;7.90;7.30;;;;;;;6.42;100.00;99190.13;15286642;19;20042;-48
2023/05/08 05:40:14;;;;;;;7.63;6.97;;;;;;;6.61;100.00;99179.72;15288226;19;20010;-48
2023/05/08 05:45:38;;;;;;;7.28;6.68;;;;;;;6.78;100.00;99177.59;15284025;19;20024;-48
2023/05/08 05:51:04;;;;;;;7.55;6.43;;;;;;;6.97;100.00;99174.34;15289614;19;20010;-47
2023/05/08 05:56:32;;;;;;;6.07;5.57;;;;;;;7.13;100.00;99178.47;15289570;19;20018;-47
2023/05/08 06:01:56;;;;;;;5.97;5.32;;;;;;;7.30;100.00;99161.91;15290536;19;20023;-51
2023/05/08 06:07:28;;;;;;;5.50;5.00;;;;;;;7.46;100.00;99150.81;15281840;19;20468;-51
2023/05/08 06:12:55;;;;;;;4.80;4.35;;;;;;;7.68;100.00;99143.72;15286782;19;20022;-51
2023/05/08 06:18:21;;;;;;;4.72;4.32;;;;;;;7.88;100.00;99135.88;15286667;19;20078;-51
2023/05/08 06:23:45;;;;;;;4.47;4.07;;;;;;;8.11;100.00;99125.91;15280027;19;20026;-49
2023/05/08 06:29:13;;;;;;;4.15;3.85;;;;;;;8.29;100.00;99113.59;15282514;19;20418;-46
2023/05/08 06:34:37;;;;;;;5.78;3.65;;;;;;;8.51;100.00;99116.34;15284159;19;20029;-47
2023/05/08 06:40:02;;;;;;;3.90;3.60;;;;;;;8.74;100.00;99111.69;15285074;19;20431;-50
2023/05/08 06:45:32;;;;;;;3.40;3.20;;;;;;;8.98;100.00;99103.34;15283512;19;20664;-49
2023/05/08 06:50:59;;;;;;;3.28;2.80;;;;;;;9.22;100.00;99099.47;15286877;19;20046;-47
2023/05/08 06:56:25;;;;;;;3.10;2.80;;;;;;;9.41;100.00;99090.63;15286045;19;20022;-49
2023/05/08 07:01:53;;;;;;;2.97;2.78;;;;;;;9.67;100.00;99082.88;15285047;19;20022;-46
2023/05/08 07:07:25;;;;;;;3.33;2.65;;;;;;;9.91;100.00;99084.31;15284153;19;20015;-50
2023/05/08 07:12:50;;;;;;;2.80;2.60;;;;;;;10.19;100.00;99073.69;15281804;19;20022;-50
2023/05/08 07:18:17;;;;;;;2.65;2.40;;;;;;;10.40;100.00;99076.28;15276571;19;20042;-51
2023/05/08 07:23:43;;;;;;;4.85;2.42;;;;;;;10.63;100.00;99071.41;15277420;19;20018;-46
2023/05/08 07:29:08;;;;;;;3.67;2.28;;;;;;;10.89;100.00;99064.50;15279995;19;20029;-46
2023/05/08 07:34:35;;;;;;;4.60;2.33;;;;;;;11.08;100.00;99066.28;15276738;19;20607;-45
2023/05/08 07:40:00;;;;;;;5.63;3.60;;;;;;;11.28;100.00;99061.63;15294189;19;20018;-48
2023/05/08 07:45:25;;;;;;;2.55;2.35;;;;;;;11.55;100.00;99059.94;15293745;19;20081;-49
2023/05/08 07:50:52;;;;;;;2.60;2.40;;;;;;;11.77;100.00;99065.88;15297282;19;20029;-47
2023/05/08 07:56:16;;;;;;;5.45;3.45;;;;;;;12.03;100.00;99063.28;15301387;19;20077;-47
2023/05/08 08:01:45;;;;;;;2.67;2.47;;;;;;;12.22;100.00;99064.16;15299123;19;20022;-50
2023/05/08 08:07:20;;;;;;;2.50;2.30;;;;;;;12.38;100.00;99066.97;15293213;19;20027;-50
2023/05/08 08:12:45;;;;;;;5.22;2.55;;;;;;;12.63;100.00;99067.13;15288479;19;20086;-48
2023/05/08 08:18:09;;;;;;;7.57;3.40;;;;;;;12.91;100.00;99069.69;15298895;19;20078;-49
2023/05/08 08:23:36;;;;;;;5.57;2.35;;;;;;;13.06;100.00;99067.22;15295236;19;20554;-50
2023/05/08 08:29:01;;;;;;;2.22;2.10;;;;;;;13.19;100.00;99062.22;15297432;19;20028;-49
2023/05/08 08:34:26;;;;;;;1.88;1.77;;;;;;;13.33;100.00;99052.63;15294030;19;20027;-50
2023/05/08 08:39:54;;;;;;;3.97;2.10;;;;;;;13.46;100.00;99054.91;15298089;19;20019;-48
2023/05/08 08:45:19;;;;;;;2.70;2.28;;;;;;;13.35;100.00;99055.16;15290960;19;20035;-49
2023/05/08 08:50:50;;;;;;;2.10;1.90;;;;;;;13.41;100.00;99054.56;15294985;19;20086;-47
2023/05/08 08:56:18;;;;;;;2.75;1.80;;;;;;;13.52;100.00;99058.81;15295367;19;20019;-50
2023/05/08 09:01:46;;;;;;;2.58;1.80;;;;;;;13.55;100.00;99051.22;15294967;19;20090;-47
2023/05/08 09:07:18;;;;;;;1.60;1.50;;;;;;;13.69;100.00;99057.84;15290180;19;20025;-48
2023/05/08 09:12:45;;;;;;;1.75;1.65;;;;;;;13.84;100.00;99065.31;15296948;19;20045;-48
2023/05/08 09:18:11;;;;;;;1.50;1.40;;;;;;;14.10;100.00;99069.75;15294326;19;20018;-52
2023/05/08 09:23:37;;;;;;;1.52;1.42;;;;;;;14.26;100.00;99066.22;15293345;19;20418;-49
2023/05/08 09:29:17;;;;;;;2.00;1.70;;;;;;;14.42;100.00;99065.34;15295277;19;20026;-48
2023/05/08 09:34:42;;;;;;;1.48;1.38;;;;;;;14.67;100.00;99059.91;15286366;19;20373;-55
2023/05/08 09:40:22;;;;;;;1.30;1.20;;;;;;;14.81;100.00;99059.25;15290858;19;20018;-48
2023/05/08 09:45:49;;;;;;;2.17;1.50;;;;;;;14.85;100.00;99051.59;15285632;19;20036;-47
2023/05/08 09:51:15;;;;;;;1.75;1.48;;;;;;;15.01;100.00;99056.13;15292427;19;20025;-51
2023/05/08 09:56:41;;;;;;;1.65;1.55;;;;;;;15.15;100.00;99049.13;15290977;19;20074;-50
2023/05/08 10:02:19;;;;;;;1.30;1.20;;;;;;;15.33;100.00;99047.03;15288404;19;20025;-48
2023/05/08 10:07:51;;;;;;;1.40;1.30;;;;;;;15.57;100.00;99061.50;15286598;19;20021;-46
2023/05/08 10:13:22;;;;;;;1.35;1.25;;;;;;;15.75;100.00;99058.50;15287829;19;20441;-47
2023/05/08 10:18:52;;;;;;;1.30;1.20;;;;;;;15.96;100.00;99065.19;15287277;19;20023;-46
2023/05/08 10:24:22;;;;;;;1.10;1.00;;;;;;;16.09;100.00;99056.44;15288545;19;20477;-46
2023/05/08 10:29:54;;;;;;;1.45;1.30;;;;;;;16.27;100.00;99048.81;15289260;19;20081;-49
2023/05/08 10:35:21;;;;;;;1.70;1.10;;;;;;;16.42;100.00;99048.00;15280733;19;20504;-46
2023/05/08 10:40:46;;;;;;;2.30;1.60;;;;;;;16.35;100.00;99049.78;15285198;19;20018;-45
2023/05/08 10:46:19;;;;;;;1.60;1.50;;;;;;;16.25;100.00;99050.88;15284852;19;20090;-46
2023/05/08 10:51:56;;;;;;;1.75;1.65;;;;;;;15.93;100.00;99050.09;15282425;19;20038;-48
2023/05/08 10:57:21;;;;;;;1.60;1.50;;;;;;;15.93;100.00;99047.38;15288954;19;20023;-46
2023/05/08 11:02:50;;;;;;;2.20;1.52;;;;;;;16.00;100.00;99045.63;15282417;19;20490;-48
2023/05/08 11:08:27;;;;;;;1.50;1.40;;;;;;;16.10;100.00;99039.09;15282205;19;20036;-48
2023/05/08 11:13:56;;;;;;;1.50;1.40;;;;;;;16.04;100.00;99042.56;15286673;19;20024;-49
2023/05/08 11:19:27;;;;;;;3.20;1.80;;;;;;;16.14;100.00;99043.16;15300125;19;20014;-52
2023/05/08 11:25:10;;;;;;;2.10;1.88;;;;;;;16.37;100.00;99051.28;15294862;19;20022;-48
2023/05/08 11:30:44;;;;;;;1.75;1.65;;;;;;;16.32;100.00;99043.66;15299166;19;20382;-51
2023/05/08 11:36:16;;;;;;;1.60;1.50;;;;;;;16.43;100.00;99036.09;15294623;19;20006;-48
2023/05/08 11:41:43;;;;;;;1.60;1.50;;;;;;;16.49;100.00;99035.38;15299665;19;20049;-50
2023/05/08 11:47:10;;;;;;;1.92;1.77;;;;;;;16.56;100.00;99033.59;15300589;19;20046;-48
2023/05/08 11:52:36;;;;;;;2.20;1.50;;;;;;;16.59;100.00;99035.94;15295868;19;20022;-51
2023/05/08 11:58:14;;;;;;;1.65;1.35;;;;;;;16.73;100.00;99025.28;15299467;19;20708;-47
2023/05/08 12:03:39;;;;;;;3.65;1.50;;;;;;;17.03;100.00;99028.03;15296819;19;20022;-50
2023/05/08 12:09:12;;;;;;;1.52;1.42;;;;;;;17.50;100.00;99026.75;15299091;19;20042;-48
2023/05/08 12:14:42;;;;;;;1.77;1.40;;;;;;;17.99;100.00;99021.63;15291627;19;20025;-52
2023/05/08 12:20:14;;;;;;;1.42;1.33;;;;;;;18.21;81.93;99008.84;15294956;19;20022;-47
2023/05/08 12:25:41;;;;;;;3.03;0.98;;;;;;;18.52;97.29;99015.78;15290993;19;20074;-50
2023/05/08 12:31:09;;;;;;;3.30;0.93;;;;;;;18.72;73.41;99015.94;15296250;19;20018;-49
2023/05/08 12:36:36;;;;;;;2.30;0.80;;;;;;;18.78;71.86;99006.94;15294858;19;20471;-47
2023/05/08 12:42:02;;;;;;;1.90;0.85;;;;;;;18.92;69.33;98998.84;15291140;19;20026;-48
2023/05/08 12:47:29;;;;;;;3.42;0.70;;;;;;;19.25;72.78;99003.63;15293559;19;20022;-49
2023/05/08 12:52:54;;;;;;;0.60;0.60;;;;;;;19.46;64.17;99001.84;15289973;19;20022;-48
2023/05/08 12:58:21;;;;;;;1.58;0.57;;;;;;;19.50;66.14;99001.22;15292007;19;20022;-50
2023/05/08 13:04:01;;;;;;;0.55;0.55;;;;;;;19.58;62.06;98985.69;15291587;19;20035;-49
2023/05/08 13:09:26;;;;;;;0.50;0.50;;;;;;;19.70;62.12;98982.13;15293176;19;20018;-48
2023/05/08 13:14:50;;;;;;;0.52;0.52;;;;;;;19.96;63.34;98977.78;15292171;19;20014;-50
2023/05/08 13:20:17;;;;;;;0.85;0.50;;;;;;;20.18;58.54;98972.13;15290462;19;20018;-49
2023/05/08 13:25:44;;;;;;;1.85;0.50;;;;;;;20.57;59.77;98959.47;15289447;19;20022;-53
2023/05/08 13:31:09;;;;;;;2.15;0.57;;;;;;;20.76;55.25;98951.44;15291653;19;20022;-47
2023/05/08 13:36:36;;;;;;;1.02;0.50;;;;;;;20.98;55.10;98952.00;15284618;19;20031;-53
2023/05/08 13:42:01;;;;;;;1.20;0.45;;;;;;;21.48;49.42;98936.81;15293102;19;20018;-54
2023/05/08 13:47:25;;;;;;;1.85;0.50;;;;;;;21.97;54.50;98932.50;15289703;19;20022;-51
2023/05/08 13:52:52;;;;;;;4.13;0.40;;;;;;;22.28;49.59;98928.00;15290732;19;20347;-49
2023/05/08 13:58:17;;;;;;;1.88;0.30;;;;;;;22.54;50.43;98917.00;15289328;19;20030;-48
2023/05/08 14:03:42;;;;;;;1.98;0.65;;;;;;;22.30;46.51;98914.91;15284332;19;20016;-49
2023/05/08 14:09:09;;;;;;;0.43;0.32;;;;;;;22.19;50.06;98906.56;15286735;19;20021;-53
2023/05/08 14:14:34;;;;;;;3.45;0.57;;;;;;;21.99;49.26;98904.84;15285483;19;20470;-53
2023/05/08 14:19:58;;;;;;;1.67;0.40;;;;;;;21.91;49.97;98899.63;15288701;19;20024;-51
2023/05/08 14:25:25;;;;;;;0.65;0.50;;;;;;;21.70;47.41;98916.25;15285534;19;20015;-54
2023/05/08 14:30:50;;;;;;;0.80;0.40;;;;;;;21.54;47.89;98906.63;15284800;19;20706;-49
2023/05/08 14:36:15;;;;;;;1.80;0.32;;;;;;;21.43;48.66;98915.56;15271617;19;20018;-50
2023/05/08 14:41:42;;;;;;;2.15;0.40;;;;;;;21.26;49.21;98909.75;15275370;19;20424;-52
2023/05/08 14:47:27;;;;;;;1.15;0.50;;;;;;;20.65;48.95;98909.13;15249076;19;20026;-53
2023/05/08 14:52:51;;;;;;;1.98;0.60;;;;;;;20.48;50.89;98903.28;15272951;19;20014;-50
2023/05/08 14:58:18;;;;;;;0.63;0.43;;;;;;;20.09;48.99;98905.00;15275030;19;20035;-52
2023/05/08 15:03:46;;;;;;;3.53;0.60;;;;;;;20.05;49.78;98911.97;15270873;19;20022;-53
2023/05/08 15:09:11;;;;;;;1.20;0.60;;;;;;;20.05;48.67;98910.06;15275134;19;20014;-52
2023/05/08 15:14:38;;;;;;;0.68;0.40;;;;;;;19.98;49.84;98914.69;15272257;19;20037;-51
2023/05/08 15:20:03;;;;;;;0.63;0.40;;;;;;;19.90;48.71;98921.22;15275154;19;20074;-47
2023/05/08 15:25:28;;;;;;;1.42;0.40;;;;;;;19.93;49.57;98907.13;15264991;19;20676;-45
2023/05/08 15:30:56;;;;;;;0.68;0.40;;;;;;;20.17;48.38;98907.50;15273098;19;20010;-46
2023/05/08 15:36:22;;;;;;;1.08;0.50;;;;;;;20.78;47.65;98922.81;15262968;19;20352;-49
2023/05/08 15:41:47;;;;;;;1.52;0.50;;;;;;;21.57;44.92;98915.47;15269783;19;20042;-50
2023/05/08 15:47:18;;;;;;;0.68;0.40;;;;;;;22.16;42.14;98908.72;15270099;19;20021;-50
2023/05/08 15:52:43;;;;;;;2.80;0.60;;;;;;;22.62;42.06;98900.25;15270149;19;20026;-48
2023/05/08 15:58:08;;;;;;;0.55;0.40;;;;;;;22.36;41.94;98909.56;15269868;19;20022;-48
2023/05/08 16:03:36;;;;;;;1.05;0.40;;;;;;;22.24;40.10;98915.78;15283387;19;20569;-48
2023/05/08 16:09:02;;;;;;;3.22;0.45;;;;;;;22.19;39.98;98909.31;15277636;19;20415;-52
2023/05/08 16:14:28;;;;;;;2.88;0.60;;;;;;;21.97;39.25;98904.22;15278421;19;20029;-51
2023/05/08 16:19:55;;;;;;;1.55;0.57;;;;;;;21.88;42.28;98900.06;15284222;19;20010;-52
2023/05/08 16:25:20;;;;;;;1.10;0.55;;;;;;;21.89;40.60;98899.03;15279390;19;20021;-52
2023/05/08 16:30:44;;;;;;;1.10;0.57;;;;;;;22.27;43.78;98893.38;15282323;19;20021;-54
2023/05/08 16:36:12;;;;;;;0.73;0.50;;;;;;;22.47;38.52;98887.72;15276658;19;20014;-51
2023/05/08 16:41:36;;;;;;;0.70;0.45;;;;;;;22.57;42.46;98881.72;15282173;19;20463;-48
2023/05/08 16:47:01;;;;;;;1.33;0.52;;;;;;;22.44;38.97;98873.63;15281778;19;20380;-50
2023/05/08 16:52:28;;;;;;;1.27;0.45;;;;;;;21.84;41.82;98880.50;15276694;19;20021;-53
2023/05/08 16:57:54;;;;;;;1.70;0.60;;;;;;;20.92;39.33;98874.28;15270750;19;20018;-52
2023/05/08 17:03:21;;;;;;;1.23;0.47;;;;;;;20.56;42.21;98874.81;15277301;19;20018;-49
2023/05/08 17:08:56;;;;;;;28.75;2.42;;;;;;;20.39;41.66;98872.53;15271532;19;20363;-50
2023/05/08 17:14:23;;;;;;;2.55;0.70;;;;;;;20.45;40.95;98870.84;15272861;19;20014;-53
2023/05/08 17:19:48;;;;;;;1.92;0.60;;;;;;;20.42;42.50;98874.00;15277882;19;20007;-48
2023/05/08 17:25:16;;;;;;;3.92;1.35;;;;;;;20.23;43.50;98879.31;15274566;19;20019;-51
2023/05/08 17:30:40;;;;;;;1.15;0.70;;;;;;;20.35;44.74;98873.19;15265766;19;20022;-52
2023/05/08 17:36:08;;;;;;;2.17;1.00;;;;;;;20.57;44.75;98869.13;15268977;19;20355;-51
2023/05/08 17:41:37;;;;;;;1.67;0.52;;;;;;;20.67;44.47;98870.56;15269278;19;20262;-51
2023/05/08 17:47:02;;;;;;;3.67;0.80;;;;;;;20.71;43.97;98874.56;15274227;19;20034;-50
2023/05/08 17:52:29;;;;;;;2.15;0.60;;;;;;;20.71;44.42;98882.78;15266673;19;20022;-52
2023/05/08 17:57:58;;;;;;;0.95;0.60;;;;;;;20.52;44.08;98871.66;15269409;19;20022;-49
2023/05/08 18:03:24;;;;;;;1.98;0.57;;;;;;;20.22;45.15;98877.63;15271149;19;20471;-53
2023/05/08 18:08:55;;;;;;;1.20;0.65;;;;;;;19.86;44.79;98878.94;15270738;19;20020;-49
2023/05/08 18:14:23;;;;;;;1.10;0.60;;;;;;;19.45;45.30;98882.66;15269975;19;20007;-51
2023/05/08 18:19:47;;;;;;;0.60;0.60;;;;;;;19.06;46.77;98885.94;15270177;19;20014;-51
2023/05/08 18:25:12;;;;;;;0.98;0.60;;;;;;;18.63;47.80;98886.16;15269977;19;20455;-48
2023/05/08 18:30:39;;;;;;;0.70;0.70;;;;;;;18.09;47.29;98885.81;15271615;19;20018;-46
2023/05/08 18:36:05;;;;;;;1.90;0.70;;;;;;;17.69;46.32;98890.94;15264028;19;20313;-50
2023/05/08 18:41:29;;;;;;;0.95;0.60;;;;;;;17.31;48.49;98893.91;15270132;19;20021;-54
2023/05/08 18:46:57;;;;;;;1.40;0.90;;;;;;;16.97;48.52;98893.53;15270616;19;20014;-50
2023/05/08 18:52:21;;;;;;;0.70;0.70;;;;;;;16.64;49.84;98908.34;15270131;19;20333;-49
2023/05/08 18:57:46;;;;;;;1.75;0.70;;;;;;;16.26;50.04;98910.34;15270330;19;20010;-53
2023/05/08 19:03:13;;;;;;;1.98;0.70;;;;;;;16.00;51.55;98906.16;15269475;19;20044;-51
2023/05/08 19:08:46;;;;;;;3.50;0.70;;;;;;;15.64;51.95;98917.69;15263687;19;20019;-47
2023/05/08 19:14:11;;;;;;;0.60;0.60;;;;;;;15.36;52.64;98921.75;15269401;19;20014;-49
2023/05/08 19:19:38;;;;;;;0.93;0.70;;;;;;;15.09;53.53;98918.56;15267239;19;20082;-46
2023/05/08 19:25:03;;;;;;;0.50;0.47;;;;;;;14.83;54.39;98918.00;15266467;19;20015;-45
2023/05/08 19:30:27;;;;;;;1.00;0.70;;;;;;;14.54;55.67;98920.28;15265793;19;20017;-49
2023/05/08 19:35:55;;;;;;;1.02;0.55;;;;;;;14.36;56.55;98912.38;15276669;19;20425;-49
2023/05/08 19:41:19;;;;;;;1.00;0.70;;;;;;;14.11;57.99;98919.72;15274645;19;20017;-51
2023/05/08 19:46:44;;;;;;;1.10;0.77;;;;;;;13.95;59.82;98915.16;15285025;19;20555;-50
2023/05/08 19:52:11;;;;;;;3.33;0.80;;;;;;;13.72;62.08;98921.25;15281025;19;20081;-50
2023/05/08 19:57:36;;;;;;;2.58;0.70;;;;;;;13.53;65.23;98928.72;15279972;19;20410;-50
2023/05/08 20:03:00;;;;;;;0.60;0.60;;;;;;;13.31;69.38;98932.03;15281705;19;20038;-46
2023/05/08 20:08:34;;;;;;;0.80;0.80;;;;;;;13.04;74.50;98928.59;15273267;19;20074;-47
2023/05/08 20:13:59;;;;;;;1.48;0.80;;;;;;;12.84;78.82;98928.00;15268167;19;20857;-50
2023/05/08 20:19:23;;;;;;;0.73;0.60;;;;;;;12.77;82.38;98925.97;15276701;19;20078;-48
2023/05/08 20:24:52;;;;;;;0.70;0.70;;;;;;;12.59;87.87;98931.47;15276200;19;20023;-52
2023/05/08 20:30:21;;;;;;;1.80;0.80;;;;;;;12.29;94.38;98936.34;15281161;19;20034;-51
2023/05/08 20:35:49;;;;;;;0.75;0.75;;;;;;;12.14;99.05;98933.41;15274027;19;20010;-49
2023/05/08 20:41:16;;;;;;;2.03;0.65;;;;;;;12.01;100.00;98936.53;15278093;19;20029;-48
2023/05/08 20:46:48;;;;;;;1.13;0.90;;;;;;;11.95;100.00;98928.19;15276626;19;20515;-50
2023/05/08 20:52:13;;;;;;;1.80;0.85;;;;;;;11.73;100.00;98938.47;15277700;19;20042;-47
2023/05/08 20:57:41;;;;;;;0.82;0.80;;;;;;;11.67;100.00;98931.84;15279249;19;20364;-54
2023/05/08 21:03:06;;;;;;;1.02;0.80;;;;;;;11.55;100.00;98922.31;15280746;19;20089;-48
2023/05/08 21:08:38;;;;;;;1.27;0.90;;;;;;;11.37;100.00;98922.31;15275149;19;20032;-51
2023/05/08 21:14:06;;;;;;;1.10;1.00;;;;;;;11.28;100.00;98926.75;15276219;19;20049;-48
2023/05/08 21:19:31;;;;;;;2.50;1.00;;;;;;;11.18;100.00;98924.13;15277383;19;20015;-46
2023/05/08 21:24:56;;;;;;;0.80;0.80;;;;;;;11.09;100.00;98912.44;15274157;19;20613;-50
2023/05/08 21:30:23;;;;;;;1.10;1.00;;;;;;;11.05;100.00;98911.03;15277073;19;20598;-52
2023/05/08 21:35:48;;;;;;;1.45;0.90;;;;;;;10.97;100.00;98913.66;15272271;19;20018;-48
2023/05/08 21:41:16;;;;;;;1.02;0.98;;;;;;;10.89;100.00;98900.91;15274944;19;20018;-48
2023/05/08 21:46:44;;;;;;;1.35;0.90;;;;;;;10.87;100.00;98897.53;15271590;19;20471;-47
2023/05/08 21:52:08;;;;;;;1.88;0.90;;;;;;;10.81;100.00;98902.66;15274351;19;20010;-46
2023/05/08 21:57:33;;;;;;;0.95;0.90;;;;;;;10.75;100.00;98901.44;15271764;19;20021;-51
2023/05/08 22:03:00;;;;;;;1.33;0.90;;;;;;;10.67;100.00;98895.94;15272681;19;20048;-53
2023/05/08 22:08:31;;;;;;;2.25;0.80;;;;;;;10.66;100.00;98889.69;15270136;19;20040;-53
2023/05/08 22:13:56;;;;;;;1.83;0.90;;;;;;;10.60;100.00;98895.69;15269406;19;20041;-48
2023/05/08 22:19:23;;;;;;;1.38;0.90;;;;;;;10.56;100.00;98888.91;15263944;19;20014;-49
2023/05/08 22:24:48;;;;;;;1.17;0.80;;;;;;;10.57;100.00;98890.59;15272218;19;20039;-47
2023/05/08 22:30:14;;;;;;;1.83;0.80;;;;;;;10.45;100.00;98877.31;15272685;19;20081;-49
2023/05/08 22:35:43;;;;;;;1.50;0.90;;;;;;;10.45;100.00;98882.72;15270292;19;20386;-46
2023/05/08 22:41:07;;;;;;;1.05;0.88;;;;;;;10.43;100.00;98891.97;15270229;19;20372;-49
2023/05/08 22:46:34;;;;;;;1.88;1.00;;;;;;;10.39;100.00;98888.72;15270750;19;20033;-50
2023/05/08 22:52:01;;;;;;;1.10;0.98;;;;;;;10.37;100.00;98881.72;15266200;19;20032;-49
2023/05/08 22:57:26;;;;;;;0.90;0.88;;;;;;;10.30;100.00;98881.47;15271459;19;20033;-51
2023/05/08 23:02:50;;;;;;;0.98;0.88;;;;;;;10.26;100.00;98877.41;15269626;19;20097;-46
2023/05/08 23:08:25;;;;;;;1.60;0.90;;;;;;;10.22;100.00;98878.69;15269370;19;20021;-49
2023/05/08 23:13:50;;;;;;;0.95;0.95;;;;;;;10.20;100.00;98869.91;15273207;19;20090;-47
2023/05/08 23:19:14;;;;;;;1.00;0.90;;;;;;;10.15;100.00;98863.13;15266548;19;20066;-47
2023/05/08 23:24:42;;;;;;;1.17;0.90;;;;;;;10.11;100.00;98859.03;15264008;19;20090;-48
2023/05/08 23:30:06;;;;;;;2.42;1.00;;;;;;;10.07;100.00;98852.22;15267764;19;20026;-49
2023/05/08 23:35:31;;;;;;;1.17;0.90;;;;;;;10.01;100.00;98856.34;15265628;19;20070;-48
2023/05/08 23:40:58;;;;;;;1.55;0.93;;;;;;;9.95;100.00;98856.09;15268113;19;20074;-48
2023/05/08 23:46:23;;;;;;;1.15;0.93;;;;;;;9.88;100.00;98845.06;15269308;19;20015;-50
2023/05/08 23:51:47;;;;;;;1.65;0.98;;;;;;;9.74;100.00;98832.94;15265667;19;20070;-47
2023/05/08 23:57:15;;;;;;;0.98;0.98;;;;;;;9.63;100.00;98839.34;15263145;19;20011;-45
